Time;durP1;ratioP1;P1;durP2;ratioP2;P2;SDS_P1;SDS_P2;PMS_P1;PMS_P2;Temp;Humidity;BMP_temperature;BMP_pressure;BME280_temperature;BME280_humidity;BME280_pressure;Samples;Min_cycle;Max_cycle;Signal;HPM_P1;HPM_P2
2024/01/18 00:02:02;;;;;;;24.05;6.00;;;16.10;92.50;;;;;;4991965;28;20038;-80
2024/01/18 00:04:28;;;;;;;23.92;5.00;;;16.00;92.50;;;;;;4996211;28;20037;-81
2024/01/18 00:06:54;;;;;;;29.30;5.32;;;16.00;92.40;;;;;;4997412;28;20038;-80
2024/01/18 00:09:22;;;;;;;31.27;6.13;;;16.00;92.40;;;;;;4996583;28;20121;-77
2024/01/18 00:11:48;;;;;;;28.15;5.82;;;16.00;92.40;;;;;;4996574;28;20060;-78
2024/01/18 00:14:13;;;;;;;31.77;6.13;;;16.00;92.30;;;;;;4996625;28;20034;-79
2024/01/18 00:16:39;;;;;;;29.73;6.68;;;16.00;92.30;;;;;;4996843;28;20027;-79
2024/01/18 00:19:05;;;;;;;25.92;6.13;;;16.00;92.20;;;;;;4996371;28;20062;-79
2024/01/18 00:21:30;;;;;;;27.70;6.82;;;16.00;92.20;;;;;;4997131;28;20034;-79
2024/01/18 00:23:56;;;;;;;30.95;5.85;;;16.00;92.20;;;;;;4998591;28;20038;-78
2024/01/18 00:26:22;;;;;;;24.48;5.13;;;16.00;92.20;;;;;;4999251;28;20061;-79
2024/01/18 00:28:47;;;;;;;28.33;6.30;;;16.00;92.20;;;;;;4996634;28;20101;-78
2024/01/18 00:31:13;;;;;;;26.58;5.80;;;16.00;92.30;;;;;;4996005;28;20114;-80
2024/01/18 00:33:39;;;;;;;25.98;5.60;;;15.90;92.30;;;;;;4996027;28;20031;-80
2024/01/18 00:36:05;;;;;;;24.30;4.90;;;15.90;92.30;;;;;;4995795;28;20434;-78
2024/01/18 00:38:31;;;;;;;29.02;5.40;;;15.90;92.20;;;;;;4995975;28;20133;-79
2024/01/18 00:40:57;;;;;;;29.38;5.82;;;15.90;92.30;;;;;;4996235;28;20050;-77
2024/01/18 00:43:23;;;;;;;26.73;6.55;;;15.90;92.30;;;;;;4996720;28;20174;-78
2024/01/18 00:45:48;;;;;;;27.27;5.70;;;15.90;92.30;;;;;;4978623;28;20034;-78
2024/01/18 00:48:14;;;;;;;26.63;5.88;;;15.90;92.30;;;;;;4995958;28;20038;-78
2024/01/18 00:50:40;;;;;;;28.90;5.72;;;15.90;92.20;;;;;;4984353;28;20051;-78
2024/01/18 00:53:06;;;;;;;27.90;6.00;;;15.90;92.30;;;;;;4976167;28;20113;-78
2024/01/18 00:55:33;;;;;;;27.85;6.80;;;15.90;92.30;;;;;;4976325;28;20042;-78
2024/01/18 00:58:00;;;;;;;36.10;7.05;;;15.90;92.30;;;;;;4976166;28;20039;-78
2024/01/18 01:00:26;;;;;;;33.70;6.68;;;15.90;92.30;;;;;;4976001;28;20053;-78
2024/01/18 01:02:52;;;;;;;27.05;6.75;;;15.90;92.30;;;;;;4977073;28;20491;-78
2024/01/18 01:05:17;;;;;;;33.55;6.57;;;15.90;92.30;;;;;;4976847;28;20042;-78
2024/01/18 01:07:43;;;;;;;24.08;5.63;;;15.90;92.40;;;;;;4976260;28;20038;-79
2024/01/18 01:10:09;;;;;;;29.17;6.65;;;15.90;92.30;;;;;;4975134;28;20043;-78
2024/01/18 01:12:35;;;;;;;32.00;6.45;;;15.90;92.40;;;;;;4975721;28;20031;-78
2024/01/18 01:15:01;;;;;;;27.23;5.70;;;15.90;92.30;;;;;;4957968;28;20170;-78
2024/01/18 01:17:26;;;;;;;35.22;6.45;;;15.90;92.40;;;;;;4975781;28;20049;-79
2024/01/18 01:19:52;;;;;;;24.83;6.05;;;15.90;92.30;;;;;;4976198;28;20117;-79
2024/01/18 01:22:18;;;;;;;26.98;6.28;;;16.00;92.30;;;;;;4976040;28;20039;-78
2024/01/18 01:24:43;;;;;;;36.10;7.20;;;16.00;92.30;;;;;;4975736;28;20491;-77
2024/01/18 01:27:09;;;;;;;27.33;6.45;;;16.10;92.30;;;;;;4975887;28;20121;-78
2024/01/18 01:29:35;;;;;;;26.65;6.20;;;16.10;92.20;;;;;;4976211;28;20101;-78
2024/01/18 01:32:01;;;;;;;32.92;6.55;;;16.10;92.10;;;;;;4975696;28;20035;-78
2024/01/18 01:34:26;;;;;;;38.47;5.80;;;16.10;92.20;;;;;;4976332;28;20031;-78
2024/01/18 01:36:52;;;;;;;28.25;6.82;;;16.10;92.30;;;;;;4976158;28;20027;-78
2024/01/18 01:39:18;;;;;;;32.40;7.10;;;16.10;92.30;;;;;;4975823;28;20031;-78
2024/01/18 01:41:44;;;;;;;35.50;6.45;;;16.00;92.30;;;;;;4977793;28;20035;-77
2024/01/18 01:44:10;;;;;;;26.23;5.68;;;16.00;92.40;;;;;;4975765;28;20030;-78
2024/01/18 01:46:35;;;;;;;32.53;6.97;;;16.00;92.40;;;;;;4975795;28;20471;-78
2024/01/18 01:49:03;;;;;;;29.95;6.88;;;16.00;92.50;;;;;;4975428;28;20061;-77
2024/01/18 01:51:38;;;;;;;34.28;6.50;;;16.00;92.60;;;;;;4992851;28;20125;-80
2024/01/18 01:54:04;;;;;;;27.90;6.18;;;16.00;92.60;;;;;;4994382;28;20069;-77
2024/01/18 01:56:36;;;;;;;36.13;6.95;;;15.90;92.50;;;;;;4976925;28;20030;-77
2024/01/18 01:59:03;;;;;;;35.70;7.68;;;15.90;92.70;;;;;;4995001;28;20105;-78
2024/01/18 02:01:29;;;;;;;26.88;6.40;;;15.90;92.70;;;;;;4995906;28;20030;-78
2024/01/18 02:03:55;;;;;;;35.58;6.72;;;15.90;92.70;;;;;;4977476;28;20132;-77
2024/01/18 02:06:21;;;;;;;35.17;7.93;;;15.90;92.70;;;;;;4994602;28;20031;-78
2024/01/18 02:08:46;;;;;;;34.03;7.43;;;15.90;92.80;;;;;;4994267;28;20117;-77
2024/01/18 02:11:13;;;;;;;30.13;7.30;;;15.90;92.80;;;;;;4976788;28;20030;-79
2024/01/18 02:13:39;;;;;;;28.42;7.45;;;15.80;92.90;;;;;;4994523;28;20158;-78
2024/01/18 02:16:05;;;;;;;33.63;7.55;;;15.90;93.00;;;;;;4994402;28;20061;-77
2024/01/18 02:18:31;;;;;;;35.85;6.85;;;15.80;93.00;;;;;;4994099;28;20027;-79
2024/01/18 02:20:57;;;;;;;33.63;7.10;;;15.80;93.00;;;;;;4994457;28;20411;-77
2024/01/18 02:23:28;;;;;;;37.65;7.22;;;15.80;93.00;;;;;;4995937;28;20109;-78
2024/01/18 02:25:53;;;;;;;33.05;6.88;;;15.80;93.00;;;;;;4975530;28;20046;-77
2024/01/18 02:28:19;;;;;;;27.77;7.18;;;15.80;93.10;;;;;;4993683;28;20038;-77
2024/01/18 02:30:45;;;;;;;33.88;7.20;;;15.80;93.10;;;;;;4993813;28;20022;-78
2024/01/18 02:33:10;;;;;;;32.75;7.40;;;15.80;93.10;;;;;;4993617;28;20034;-77
2024/01/18 02:35:37;;;;;;;39.78;7.63;;;15.80;93.20;;;;;;4993957;28;20065;-78
2024/01/18 02:38:04;;;;;;;35.60;7.00;;;15.80;93.20;;;;;;4993899;28;20038;-77
2024/01/18 02:40:29;;;;;;;31.42;6.63;;;15.80;93.20;;;;;;4993974;28;20228;-78
2024/01/18 02:42:55;;;;;;;32.13;7.20;;;15.80;93.20;;;;;;4993831;28;20113;-78
2024/01/18 02:45:22;;;;;;;30.30;6.63;;;15.80;93.20;;;;;;4993654;28;20554;-77
2024/01/18 02:47:47;;;;;;;32.13;7.78;;;15.80;93.30;;;;;;4993648;28;20117;-78
2024/01/18 02:50:13;;;;;;;35.42;6.47;;;15.70;93.20;;;;;;4993556;28;20130;-78
2024/01/18 02:52:39;;;;;;;32.72;7.03;;;15.70;93.30;;;;;;4993419;28;20061;-79
2024/01/18 02:55:06;;;;;;;33.45;6.57;;;15.70;93.30;;;;;;4993350;28;20038;-77
2024/01/18 02:57:32;;;;;;;38.33;8.23;;;15.70;93.40;;;;;;4993488;28;20113;-78
2024/01/18 02:59:58;;;;;;;29.75;7.03;;;15.70;93.30;;;;;;4993196;28;20126;-78
2024/01/18 03:02:24;;;;;;;34.20;7.10;;;15.70;93.40;;;;;;4993259;28;20475;-78
2024/01/18 03:04:49;;;;;;;33.90;6.95;;;15.70;93.40;;;;;;4993115;28;20027;-78
2024/01/18 03:07:15;;;;;;;31.33;7.20;;;15.70;93.40;;;;;;4975663;28;20035;-79
2024/01/18 03:09:41;;;;;;;35.85;7.45;;;15.60;93.40;;;;;;4993606;28;20058;-77
2024/01/18 03:12:07;;;;;;;26.63;6.25;;;15.60;93.40;;;;;;4994044;28;20431;-78
2024/01/18 03:14:33;;;;;;;34.28;7.35;;;15.60;93.40;;;;;;4979375;28;20063;-78
2024/01/18 03:16:59;;;;;;;32.33;6.05;;;15.60;93.40;;;;;;4997025;28;20034;-77
2024/01/18 03:19:25;;;;;;;43.28;6.40;;;15.60;93.40;;;;;;4995457;28;20042;-77
2024/01/18 03:21:50;;;;;;;27.60;6.85;;;15.60;93.40;;;;;;4999737;28;20399;-77
2024/01/18 03:24:16;;;;;;;38.30;7.35;;;15.60;93.50;;;;;;4993609;28;20054;-79
2024/01/18 03:26:42;;;;;;;37.58;6.72;;;15.60;93.50;;;;;;4992938;28;20035;-78
2024/01/18 03:29:11;;;;;;;34.40;6.75;;;15.60;93.80;;;;;;4992824;28;20394;-78
2024/01/18 03:31:36;;;;;;;31.50;7.35;;;15.60;93.50;;;;;;4993569;28;20049;-78
2024/01/18 03:34:02;;;;;;;30.55;6.30;;;15.60;93.50;;;;;;4993263;28;20445;-78
2024/01/18 03:36:28;;;;;;;28.42;5.90;;;15.60;93.50;;;;;;4993391;28;20041;-77
2024/01/18 03:38:53;;;;;;;31.15;6.88;;;15.60;93.50;;;;;;4992088;28;20035;-77
2024/01/18 03:41:20;;;;;;;36.40;7.30;;;15.50;93.50;;;;;;4993299;28;20041;-78
2024/01/18 03:43:46;;;;;;;30.45;7.20;;;15.60;93.60;;;;;;4994610;28;20034;-78
2024/01/18 03:46:15;;;;;;;31.80;6.10;;;15.60;93.50;;;;;;4992757;28;20034;-77
2024/01/18 03:48:41;;;;;;;31.27;6.47;;;15.60;93.50;;;;;;4993185;28;20045;-78
2024/01/18 03:51:07;;;;;;;39.33;7.20;;;15.60;93.60;;;;;;4992491;28;20042;-77
2024/01/18 03:53:32;;;;;;;30.52;7.53;;;15.60;93.50;;;;;;4975930;28;20133;-77
2024/01/18 03:55:59;;;;;;;32.70;7.40;;;15.60;93.50;;;;;;4993563;28;20046;-78
2024/01/18 03:58:25;;;;;;;31.08;7.00;;;15.60;93.60;;;;;;4993158;28;20074;-78
2024/01/18 04:00:51;;;;;;;33.42;7.07;;;15.60;93.60;;;;;;4992908;28;20115;-77
2024/01/18 04:03:17;;;;;;;33.83;6.43;;;15.60;93.60;;;;;;4975866;28;20073;-78
2024/01/18 04:05:43;;;;;;;38.17;7.50;;;15.60;93.60;;;;;;4993195;28;20153;-78
2024/01/18 04:08:09;;;;;;;32.88;6.93;;;15.60;93.50;;;;;;4992831;28;20522;-77
2024/01/18 04:10:35;;;;;;;27.35;5.70;;;15.60;93.50;;;;;;4992821;28;20027;-78
2024/01/18 04:13:02;;;;;;;28.67;6.97;;;15.60;93.50;;;;;;4992884;28;20117;-79
2024/01/18 04:15:28;;;;;;;36.58;6.68;;;15.70;93.60;;;;;;4975219;28;20030;-77
2024/01/18 04:17:54;;;;;;;40.70;7.07;;;15.70;93.60;;;;;;4992814;28;20058;-79
2024/01/18 04:20:21;;;;;;;31.83;6.50;;;15.70;93.60;;;;;;4992802;28;20450;-78
2024/01/18 04:22:47;;;;;;;34.95;5.90;;;15.70;93.50;;;;;;4975063;28;20126;-78
2024/01/18 04:25:13;;;;;;;39.35;6.50;;;15.70;93.50;;;;;;4992120;28;20427;-79
2024/01/18 04:27:38;;;;;;;27.00;5.90;;;15.70;93.50;;;;;;4992797;28;20038;-77
2024/01/18 04:30:05;;;;;;;36.58;7.32;;;15.70;93.50;;;;;;4992448;28;20486;-78
2024/01/18 04:32:31;;;;;;;25.33;5.95;;;15.70;93.40;;;;;;4992590;28;20426;-76
2024/01/18 04:34:56;;;;;;;33.17;6.28;;;15.70;93.40;;;;;;4992414;28;20034;-77
2024/01/18 04:37:22;;;;;;;26.40;6.72;;;15.70;93.30;;;;;;4992594;28;20086;-77
2024/01/18 04:39:48;;;;;;;28.90;6.13;;;15.70;93.30;;;;;;4992613;28;20113;-78
2024/01/18 04:42:15;;;;;;;29.02;6.20;;;15.70;93.30;;;;;;4993437;28;20078;-77
2024/01/18 04:44:41;;;;;;;27.25;6.53;;;15.70;93.30;;;;;;4993148;28;20070;-78
2024/01/18 04:47:07;;;;;;;24.02;4.70;;;15.80;93.40;;;;;;4993820;28;20089;-78
2024/01/18 06:37:12;;;;;;;29.80;6.35;;;15.50;92.00;;;;;;5075057;28;20924;-81
2024/01/18 06:39:38;;;;;;;32.60;6.35;;;15.90;92.90;;;;;;5070245;28;20033;-80
2024/01/18 06:42:07;;;;;;;28.90;6.90;;;15.80;93.00;;;;;;5070504;28;20036;-80
2024/01/18 06:44:33;;;;;;;30.08;6.70;;;15.80;93.10;;;;;;5073583;28;20047;-82
2024/01/18 06:47:00;;;;;;;25.35;5.45;;;15.80;93.10;;;;;;5071472;28;20089;-81
2024/01/18 06:49:26;;;;;;;27.25;5.90;;;15.80;93.10;;;;;;5070787;28;20355;-83
2024/01/18 06:51:52;;;;;;;26.98;6.55;;;15.80;93.20;;;;;;5069912;28;20031;-83
2024/01/18 06:54:21;;;;;;;28.88;5.85;;;15.80;93.20;;;;;;5070755;28;20020;-84
2024/01/18 06:56:47;;;;;;;28.85;5.20;;;15.80;93.20;;;;;;5070387;28;20040;-84
2024/01/18 06:59:14;;;;;;;30.27;6.15;;;15.90;93.30;;;;;;5070035;28;20512;-84
2024/01/18 07:01:40;;;;;;;31.05;6.45;;;15.90;93.30;;;;;;5070190;28;20035;-84
2024/01/18 07:04:06;;;;;;;30.10;6.43;;;15.90;93.30;;;;;;5070293;28;20052;-81
2024/01/18 07:06:31;;;;;;;28.08;6.45;;;15.90;93.30;;;;;;5070438;28;20029;-84
2024/01/18 07:08:57;;;;;;;31.90;6.18;;;15.90;93.30;;;;;;5071651;28;20021;-82
2024/01/18 07:11:23;;;;;;;31.65;6.20;;;15.90;93.30;;;;;;5075571;28;20032;-82
2024/01/18 07:13:48;;;;;;;31.55;5.60;;;15.90;93.40;;;;;;5079459;28;20390;-81
2024/01/18 07:16:14;;;;;;;25.23;5.47;;;16.00;93.50;;;;;;5075105;28;20033;-83
2024/01/18 07:18:40;;;;;;;28.48;6.05;;;16.00;93.40;;;;;;5073402;28;20020;-85
2024/01/18 07:21:05;;;;;;;26.88;5.88;;;16.10;93.50;;;;;;5074242;28;20078;-86
2024/01/18 07:23:31;;;;;;;32.38;7.05;;;16.20;93.50;;;;;;5072569;28;20520;-85
2024/01/18 07:25:57;;;;;;;28.60;6.05;;;16.30;93.40;;;;;;5072495;28;20131;-80
2024/01/18 07:28:23;;;;;;;28.73;5.93;;;16.40;93.30;;;;;;5070765;28;20048;-83
2024/01/18 07:30:48;;;;;;;28.30;5.57;;;16.50;93.30;;;;;;5071594;28;20025;-86
2024/01/18 07:33:14;;;;;;;27.20;5.47;;;16.50;93.30;;;;;;5071407;28;20406;-87
2024/01/18 07:35:40;;;;;;;26.38;5.70;;;16.50;93.20;;;;;;5069798;28;20049;-87
2024/01/18 07:38:06;;;;;;;24.10;6.30;;;16.50;93.20;;;;;;5056731;28;20050;-88
2024/01/18 07:40:32;;;;;;;26.63;6.13;;;16.60;93.20;;;;;;5056915;28;20053;-87
2024/01/18 07:42:57;;;;;;;36.10;6.78;;;17.40;93.00;;;;;;5067670;28;20031;-85
2024/01/18 07:45:23;;;;;;;29.42;6.32;;;18.30;92.10;;;;;;5072534;28;20064;-88
2024/01/18 07:47:49;;;;;;;31.25;6.65;;;18.50;91.30;;;;;;5056545;28;20089;-85
2024/01/18 07:50:16;;;;;;;27.77;6.22;;;18.30;91.40;;;;;;5054756;28;20033;-87
2024/01/18 07:52:41;;;;;;;33.00;6.60;;;18.10;91.50;;;;;;5055757;28;20044;-88
2024/01/18 07:55:07;;;;;;;26.00;6.25;;;18.00;91.70;;;;;;5055933;28;20068;-88
2024/01/18 07:57:34;;;;;;;28.70;6.95;;;17.90;91.70;;;;;;5055932;28;20544;-88
2024/01/18 08:00:01;;;;;;;29.77;7.22;;;17.90;91.90;;;;;;5056597;28;20041;-82
2024/01/18 08:02:26;;;;;;;29.58;6.63;;;17.90;91.90;;;;;;5056643;28;20045;-86
2024/01/18 08:04:52;;;;;;;30.38;6.20;;;17.80;91.90;;;;;;5058032;28;20036;-87
2024/01/18 08:07:18;;;;;;;25.48;6.65;;;17.80;92.00;;;;;;5055991;28;20033;-87
2024/01/18 08:09:44;;;;;;;30.10;6.60;;;17.80;92.10;;;;;;5055795;28;20394;-85
2024/01/18 08:12:09;;;;;;;29.70;6.65;;;17.80;92.00;;;;;;5056025;28;20056;-86
2024/01/18 08:14:42;;;;;;;33.10;6.68;;;17.70;92.10;;;;;;5056355;28;20044;-86
2024/01/18 08:17:08;;;;;;;29.63;6.25;;;17.60;92.20;;;;;;5055379;28;20021;-86
2024/01/18 08:19:34;;;;;;;29.92;6.47;;;17.60;92.30;;;;;;5056141;28;20029;-85
2024/01/18 08:21:59;;;;;;;33.25;6.93;;;17.50;92.30;;;;;;5062074;28;20029;-86
2024/01/18 08:24:25;;;;;;;34.67;7.60;;;17.50;92.30;;;;;;5059365;28;20386;-84
2024/01/18 08:26:51;;;;;;;35.13;7.03;;;17.60;92.30;;;;;;5056771;28;20032;-88
2024/01/18 08:29:17;;;;;;;34.88;6.55;;;17.60;92.40;;;;;;5055962;28;20043;-87
2024/01/18 08:31:43;;;;;;;35.58;6.60;;;17.60;92.40;;;;;;5055744;28;20099;-86
2024/01/18 08:34:08;;;;;;;33.00;6.30;;;17.60;92.40;;;;;;5056209;28;20025;-87
2024/01/18 08:36:36;;;;;;;29.05;6.53;;;17.60;92.50;;;;;;5056931;28;20049;-89
2024/01/18 08:39:02;;;;;;;30.38;6.13;;;17.60;92.40;;;;;;5056689;28;20035;-85
2024/01/18 08:41:28;;;;;;;32.97;7.05;;;17.60;92.30;;;;;;5059169;28;20151;-85
2024/01/18 08:43:53;;;;;;;41.08;7.30;;;17.60;92.40;;;;;;5056320;28;20021;-85
2024/01/18 08:46:19;;;;;;;34.65;7.55;;;17.60;92.30;;;;;;5056673;28;20033;-86
2024/01/18 08:48:45;;;;;;;29.35;5.95;;;17.60;92.30;;;;;;5062835;28;20043;-88
2024/01/18 08:51:14;;;;;;;29.33;7.45;;;17.70;92.20;;;;;;5060815;28;20092;-86
2024/01/18 08:53:43;;;;;;;34.47;6.53;;;17.70;92.00;;;;;;5071720;28;20032;-80
2024/01/18 08:56:09;;;;;;;30.85;7.07;;;17.80;91.90;;;;;;5060499;28;20039;-86
2024/01/18 08:58:36;;;;;;;35.08;7.18;;;17.90;91.80;;;;;;5055981;28;20021;-86
2024/01/18 09:01:02;;;;;;;28.00;5.57;;;18.00;91.60;;;;;;5053758;28;20356;-73
2024/01/18 09:03:28;;;;;;;31.38;6.85;;;18.10;91.40;;;;;;5053744;28;20100;-82
2024/01/18 09:05:55;;;;;;;37.28;6.72;;;18.30;91.20;;;;;;5055017;28;20044;-85
2024/01/18 09:08:22;;;;;;;30.60;6.68;;;18.50;90.80;;;;;;5053679;28;20025;-84
2024/01/18 09:10:47;;;;;;;26.38;5.88;;;18.60;90.60;;;;;;5053695;28;20037;-85
2024/01/18 09:13:13;;;;;;;30.27;5.93;;;18.70;90.10;;;;;;5053095;28;20426;-84
2024/01/18 09:15:39;;;;;;;36.28;6.38;;;18.80;90.00;;;;;;5053221;28;20048;-83
2024/01/18 09:18:06;;;;;;;35.30;5.80;;;18.90;89.50;;;;;;5057847;28;20038;-82
2024/01/18 09:20:32;;;;;;;29.15;6.57;;;18.90;89.30;;;;;;5060717;28;20025;-82
2024/01/18 09:22:57;;;;;;;32.90;6.70;;;19.00;89.30;;;;;;5055487;28;20013;-82
2024/01/18 09:25:23;;;;;;;33.47;6.90;;;19.00;88.90;;;;;;5053210;28;20457;-78
2024/01/18 09:27:49;;;;;;;33.53;7.00;;;19.00;88.80;;;;;;5052184;28;20016;-79
2024/01/18 09:30:15;;;;;;;27.60;5.93;;;19.10;88.60;;;;;;5055485;28;20025;-83
2024/01/18 09:32:41;;;;;;;32.97;6.35;;;19.20;88.40;;;;;;5052573;28;20427;-82
2024/01/18 09:35:07;;;;;;;28.98;6.00;;;19.20;88.00;;;;;;5051144;28;20055;-81
2024/01/18 09:37:32;;;;;;;28.90;6.40;;;19.30;87.80;;;;;;5052347;28;20406;-80
2024/01/18 09:39:58;;;;;;;33.40;6.95;;;19.40;87.40;;;;;;5052868;28;20037;-81
2024/01/18 09:42:30;;;;;;;26.92;5.57;;;19.50;87.20;;;;;;5053904;28;20085;-81
2024/01/18 09:45:07;;;;;;;43.53;8.63;;;19.50;86.80;;;;;;5060971;28;20025;-78
2024/01/18 09:47:33;;;;;;;32.50;5.78;;;19.60;87.40;;;;;;5052719;28;20029;-79
2024/01/18 09:49:59;;;;;;;27.50;5.88;;;19.60;86.30;;;;;;5052121;28;20097;-75
2024/01/18 09:52:25;;;;;;;35.42;6.38;;;19.50;86.00;;;;;;5051835;28;20021;-75
2024/01/18 09:54:51;;;;;;;30.30;6.43;;;19.40;86.00;;;;;;5052564;28;20029;-83
2024/01/18 09:57:22;;;;;;;29.38;6.43;;;19.40;86.20;;;;;;5052999;28;20025;-84
2024/01/18 09:59:50;;;;;;;31.05;6.68;;;19.50;86.30;;;;;;5053290;28;20029;-81
2024/01/18 10:02:16;;;;;;;32.42;5.68;;;19.50;86.20;;;;;;5052728;28;20017;-77
2024/01/18 10:04:42;;;;;;;26.80;6.00;;;19.50;86.10;;;;;;5052093;28;20090;-80
2024/01/18 10:07:08;;;;;;;25.00;5.68;;;19.40;86.30;;;;;;5054811;28;20475;-80
2024/01/18 10:09:34;;;;;;;27.33;5.90;;;19.40;86.00;;;;;;5053915;28;20389;-78
2024/01/18 10:12:01;;;;;;;39.00;6.00;;;19.40;85.50;;;;;;5052720;28;20048;-78
2024/01/18 10:14:47;;;;;;;26.35;5.80;;;19.40;85.70;;;;;;5052779;28;20027;-81
2024/01/18 10:17:22;;;;;;;32.90;5.40;;;19.30;85.40;;;;;;5052623;28;20033;-82
2024/01/18 10:20:00;;;;;;;35.65;6.60;;;19.30;85.30;;;;;;5053333;28;20116;-79
2024/01/18 10:22:26;;;;;;;28.55;6.25;;;19.30;85.80;;;;;;5050727;28;20031;-74
2024/01/18 10:24:52;;;;;;;28.88;5.47;;;19.20;85.50;;;;;;5052284;28;20435;-71
2024/01/18 10:27:22;;;;;;;30.02;6.82;;;19.20;85.70;;;;;;5051910;28;20018;-71
2024/01/18 10:29:49;;;;;;;28.20;5.97;;;19.20;86.00;;;;;;5051877;28;20071;-75
2024/01/18 10:32:16;;;;;;;33.65;6.30;;;19.10;85.70;;;;;;5051393;28;20036;-70
2024/01/18 10:34:42;;;;;;;32.00;6.43;;;19.10;85.70;;;;;;5051361;28;20547;-78
2024/01/18 10:37:12;;;;;;;27.85;5.85;;;19.00;85.30;;;;;;5051868;28;20355;-78
2024/01/18 10:39:39;;;;;;;30.88;8.82;;;18.90;85.40;;;;;;5053083;28;20114;-77
2024/01/18 10:42:10;;;;;;;29.52;6.90;;;18.90;85.50;;;;;;5053192;28;20025;-75
2024/01/18 10:44:41;;;;;;;30.88;6.70;;;18.80;85.60;;;;;;5051537;28;20052;-76
2024/01/18 10:47:11;;;;;;;32.50;7.15;;;18.80;85.50;;;;;;5051140;28;20397;-77
2024/01/18 10:49:37;;;;;;;37.65;7.15;;;18.90;85.30;;;;;;5051475;28;20032;-78
2024/01/18 10:52:04;;;;;;;34.05;6.72;;;19.00;85.40;;;;;;5049713;28;20041;-77
2024/01/18 10:54:31;;;;;;;33.88;6.95;;;19.10;85.10;;;;;;5051125;28;20097;-77
2024/01/18 10:56:59;;;;;;;31.90;6.50;;;19.10;85.10;;;;;;5051359;28;20105;-74
2024/01/18 10:59:26;;;;;;;25.08;7.03;;;19.10;84.90;;;;;;5049515;28;20029;-74
2024/01/18 11:01:54;;;;;;;37.30;7.22;;;19.00;84.90;;;;;;5051274;28;20056;-72
2024/01/18 11:04:20;;;;;;;34.95;7.38;;;19.00;84.90;;;;;;5050937;28;20021;-74
2024/01/18 11:06:47;;;;;;;37.33;7.00;;;18.90;84.90;;;;;;5050733;28;20048;-73
2024/01/18 11:09:13;;;;;;;40.95;8.10;;;18.90;85.10;;;;;;5048946;28;20033;-74
2024/01/18 11:11:40;;;;;;;38.97;8.65;;;18.90;85.10;;;;;;5051422;28;20021;-72
2024/01/18 11:14:08;;;;;;;31.52;9.23;;;18.90;85.10;;;;;;5053351;28;20036;-73
2024/01/18 11:16:33;;;;;;;32.45;7.93;;;18.90;85.10;;;;;;5055759;28;20041;-73
2024/01/18 11:19:00;;;;;;;36.15;6.35;;;18.90;85.20;;;;;;5055777;28;20123;-74
2024/01/18 11:21:44;;;;;;;35.10;6.93;;;18.90;85.30;;;;;;5056272;28;20052;-72
2024/01/18 11:24:10;;;;;;;39.17;7.30;;;18.90;85.30;;;;;;5056061;28;20433;-74
2024/01/18 11:26:36;;;;;;;33.90;7.38;;;18.90;85.50;;;;;;5054180;28;20021;-73
2024/01/18 11:29:25;;;;;;;32.47;6.82;;;18.80;85.40;;;;;;5055327;28;20101;-74
2024/01/18 11:31:51;;;;;;;31.67;6.78;;;18.80;85.40;;;;;;5055399;28;20028;-74
2024/01/18 11:34:31;;;;;;;44.45;8.00;;;18.70;85.60;;;;;;5054157;28;20040;-73
2024/01/18 11:37:13;;;;;;;31.50;6.85;;;18.60;85.70;;;;;;5054958;28;20495;-74
2024/01/18 11:39:53;;;;;;;32.35;7.35;;;18.60;85.80;;;;;;5055379;28;20037;-72
2024/01/18 11:42:24;;;;;;;26.27;5.93;;;18.60;85.80;;;;;;5053725;28;20036;-73
2024/01/18 11:44:56;;;;;;;34.63;7.45;;;18.60;85.80;;;;;;5055344;28;20033;-76
2024/01/18 11:47:28;;;;;;;27.10;5.93;;;18.60;85.80;;;;;;5054962;28;20025;-73
2024/01/18 11:49:54;;;;;;;30.33;6.45;;;18.60;85.50;;;;;;5055117;28;20048;-73
2024/01/18 11:52:24;;;;;;;35.25;7.47;;;18.60;85.60;;;;;;5054884;28;20063;-74
2024/01/18 11:54:56;;;;;;;26.40;6.45;;;18.70;85.60;;;;;;5055118;28;20036;-73
2024/01/18 11:57:23;;;;;;;33.72;7.32;;;18.70;85.40;;;;;;5054964;28;20021;-74
2024/01/18 11:59:49;;;;;;;27.88;5.75;;;18.70;85.00;;;;;;5054899;28;20029;-75
2024/01/18 12:02:15;;;;;;;35.70;7.05;;;18.60;84.90;;;;;;5054588;28;20351;-73
2024/01/18 12:04:41;;;;;;;24.17;5.88;;;18.60;85.00;;;;;;5053573;28;20573;-73
2024/01/18 12:07:08;;;;;;;30.88;7.32;;;18.60;85.10;;;;;;5054541;28;20059;-73
2024/01/18 12:09:34;;;;;;;32.13;6.57;;;18.60;85.00;;;;;;5054828;28;20036;-72
2024/01/18 12:12:00;;;;;;;28.35;6.30;;;18.60;84.80;;;;;;5054613;28;20463;-75
2024/01/18 12:14:27;;;;;;;33.75;6.68;;;18.60;85.40;;;;;;5054286;28;20421;-72
2024/01/18 12:16:53;;;;;;;28.35;6.45;;;18.60;84.60;;;;;;5053998;28;20044;-72
2024/01/18 12:19:35;;;;;;;30.55;6.25;;;18.70;84.70;;;;;;5054441;28;20021;-74
2024/01/18 12:22:02;;;;;;;31.25;7.53;;;18.70;84.50;;;;;;5054538;28;20017;-73
2024/01/18 12:24:27;;;;;;;35.95;6.43;;;18.70;84.50;;;;;;5054000;28;20021;-73
2024/01/18 12:26:54;;;;;;;28.63;7.05;;;18.70;84.30;;;;;;5054117;28;20029;-73
2024/01/18 12:29:20;;;;;;;32.72;6.22;;;18.80;84.20;;;;;;5053858;28;20082;-72
2024/01/18 12:31:50;;;;;;;26.33;5.50;;;18.80;84.00;;;;;;5054236;28;20112;-75
